Time;durP1;ratioP1;P1;durP2;ratioP2;P2;SDS_P1;SDS_P2;PMS_P1;PMS_P2;Temp;Humidity;BMP_temperature;BMP_pressure;BME280_temperature;BME280_humidity;BME280_pressure;Samples;Min_cycle;Max_cycle;Signal;HPM_P1;HPM_P2
2022/05/05 00:01:53;;;;;;;;;26.00;23.33;;;;;33.41;24.53;101598.53;5076843;28;48074;-80
2022/05/05 00:04:19;;;;;;;;;24.33;22.00;;;;;33.39;24.97;101602.34;5078230;27;45250;-80
2022/05/05 00:06:45;;;;;;;;;25.33;22.33;;;;;33.08;23.91;101580.44;5077203;28;45448;-80
2022/05/05 00:09:10;;;;;;;;;25.33;23.33;;;;;32.98;25.29;101573.72;5077838;27;45402;-80
2022/05/05 00:14:31;;;;;;;;;21.33;20.33;;;;;32.98;24.59;101591.13;5077986;28;45386;-78
2022/05/05 00:17:03;;;;;;;;;22.67;18.67;;;;;32.98;24.21;101598.47;5076977;28;45526;-80
2022/05/05 00:19:32;;;;;;;;;20.00;19.33;;;;;32.62;24.04;101573.16;5078238;27;45411;-80
2022/05/05 00:21:58;;;;;;;;;21.00;18.67;;;;;32.67;24.56;101584.75;5077896;28;46560;-80
2022/05/05 00:24:24;;;;;;;;;22.00;20.00;;;;;32.55;24.00;101573.63;5077434;27;45427;-80
2022/05/05 00:26:49;;;;;;;;;19.33;19.33;;;;;32.56;24.08;101567.13;5076748;28;45556;-80
2022/05/05 00:29:15;;;;;;;;;16.00;16.00;;;;;32.56;23.57;101600.09;5078065;28;45623;-80
2022/05/05 00:31:41;;;;;;;;;14.33;14.33;;;;;32.51;24.07;101605.00;5076658;28;46046;-80
2022/05/05 00:34:07;;;;;;;;;19.67;17.67;;;;;32.31;23.25;101576.88;5077600;27;45501;-79
2022/05/05 00:36:32;;;;;;;;;17.67;17.33;;;;;32.27;23.27;101576.16;5077669;28;45468;-80
2022/05/05 00:38:57;;;;;;;;;19.00;18.00;;;;;32.50;23.60;101606.84;5077461;27;45417;-80
2022/05/05 00:41:23;;;;;;;;;20.67;18.33;;;;;32.26;23.44;101566.16;5077724;27;45245;-80
2022/05/05 00:43:49;;;;;;;;;22.00;18.33;;;;;32.44;23.94;101597.13;5077605;27;45359;-80
2022/05/05 00:46:15;;;;;;;;;17.67;16.33;;;;;32.50;24.53;101601.34;5077692;27;45259;-80
2022/05/05 00:48:42;;;;;;;;;17.33;17.00;;;;;32.41;23.60;101590.94;5077901;28;45405;-80
2022/05/05 00:51:08;;;;;;;;;18.00;18.00;;;;;32.46;23.84;101608.91;5077329;27;46257;-80
2022/05/05 00:53:36;;;;;;;;;18.00;15.00;;;;;32.41;23.80;101604.69;5077052;27;45417;-80
2022/05/05 00:56:08;;;;;;;;;17.67;16.00;;;;;32.31;23.86;101591.47;5077754;27;45515;-80
2022/05/05 00:58:34;;;;;;;;;16.67;16.00;;;;;32.35;23.08;101607.78;5077674;27;45425;-80
2022/05/05 01:01:05;;;;;;;;;18.33;17.67;;;;;32.29;24.09;101587.06;5075928;28;45585;-80
2022/05/05 01:03:37;;;;;;;;;20.50;20.50;;;;;32.38;23.96;101596.63;5076038;28;46111;-80
2022/05/05 01:06:05;;;;;;;;;19.00;16.67;;;;;32.29;23.81;101582.47;5077433;27;45462;-80
2022/05/05 01:08:32;;;;;;;;;16.67;15.67;;;;;32.30;24.47;101569.59;5077390;27;45379;-80
2022/05/05 01:10:58;;;;;;;;;17.00;17.00;;;;;32.41;23.68;101605.56;5076266;27;45618;-80
2022/05/05 01:13:25;;;;;;;;;17.00;16.00;;;;;32.38;24.05;101603.00;5075891;28;45339;-80
2022/05/05 01:15:51;;;;;;;;;15.00;13.33;;;;;31.98;23.42;101551.31;5076183;28;45474;-80
2022/05/05 01:18:16;;;;;;;;;15.00;15.00;;;;;32.16;23.38;101597.88;5077014;27;45226;-80
2022/05/05 01:20:44;;;;;;;;;14.00;14.00;;;;;32.07;23.51;101577.31;5077186;27;46492;-80
2022/05/05 01:23:10;;;;;;;;;17.33;15.33;;;;;32.14;23.88;101613.56;5076652;28;45235;-80
2022/05/05 01:28:20;;;;;;;;;15.33;14.33;;;;;31.94;23.57;101574.41;5077043;28;45275;-80
2022/05/05 01:30:47;;;;;;;;;16.33;15.33;;;;;32.24;23.60;101612.06;5076831;27;45538;-80
2022/05/05 01:33:19;;;;;;;;;18.00;17.00;;;;;32.25;23.60;101612.91;5076948;28;45433;-80
2022/05/05 01:35:48;;;;;;;;;15.67;15.67;;;;;32.18;23.49;101611.53;5074976;28;45397;-80
2022/05/05 01:38:16;;;;;;;;;14.00;14.00;;;;;32.01;23.91;101602.41;5076771;27;45494;-80
2022/05/05 01:40:43;;;;;;;;;16.67;13.33;;;;;31.87;23.38;101580.34;5076749;27;46524;-80
2022/05/05 01:43:09;;;;;;;;;14.33;14.33;;;;;31.92;23.12;101611.16;5075201;28;45885;-80
2022/05/05 01:45:36;;;;;;;;;12.67;12.00;;;;;31.71;23.17;101611.41;5075452;28;45256;-80
2022/05/05 01:48:02;;;;;;;;;14.33;13.33;;;;;31.60;23.73;101611.13;5075254;28;45577;-80
2022/05/05 01:50:30;;;;;;;;;14.67;12.00;;;;;31.72;23.38;101610.44;5074813;28;48255;-80
2022/05/05 01:52:57;;;;;;;;;13.00;9.00;;;;;31.71;23.17;101613.25;5076392;27;45396;-80
2022/05/05 01:55:22;;;;;;;;;12.33;10.00;;;;;31.53;23.04;101599.56;5076595;27;45422;-80
2022/05/05 01:57:48;;;;;;;;;8.67;8.67;;;;;31.46;23.16;101604.53;5076747;27;45447;-80
2022/05/05 02:00:14;;;;;;;;;8.33;8.00;;;;;31.31;23.28;101599.91;5076118;27;45564;-80
2022/05/05 02:02:41;;;;;;;;;8.67;8.67;;;;;31.35;23.29;101601.50;5076638;27;45480;-80
2022/05/05 02:05:07;;;;;;;;;9.00;8.00;;;;;31.13;23.35;101602.66;5074700;28;45461;-80
2022/05/05 02:07:34;;;;;;;;;9.00;9.00;;;;;31.41;23.89;101623.09;5076382;27;45354;-80
2022/05/05 02:10:01;;;;;;;;;8.33;8.00;;;;;31.37;23.38;101615.13;5076332;27;45408;-80
2022/05/05 02:12:28;;;;;;;;;10.33;8.33;;;;;31.13;23.32;101578.00;5076092;27;45244;-80
2022/05/05 02:14:54;;;;;;;;;7.67;7.67;;;;;31.15;23.73;101602.56;5076325;27;45339;-80
2022/05/05 02:17:19;;;;;;;;;8.33;8.00;;;;;31.25;23.78;101613.94;5076109;27;45628;-80
2022/05/05 02:19:44;;;;;;;;;7.67;7.67;;;;;31.21;23.67;101613.22;5075864;27;46462;-80
2022/05/05 02:22:11;;;;;;;;;7.00;5.33;;;;;31.17;24.00;101607.97;5075551;27;45256;-80
2022/05/05 02:24:36;;;;;;;;;9.00;9.00;;;;;31.15;23.92;101601.72;5074126;28;45274;-80
2022/05/05 02:27:01;;;;;;;;;9.67;9.67;;;;;31.25;23.83;101620.31;5074935;28;45613;-79
2022/05/05 02:29:27;;;;;;;;;10.00;9.00;;;;;31.07;23.92;101608.50;5076012;28;46432;-80
2022/05/05 02:31:52;;;;;;;;;9.00;9.00;;;;;31.06;23.60;101590.28;5075998;27;45545;-79
2022/05/05 02:34:18;;;;;;;;;9.00;8.00;;;;;31.05;24.37;101588.47;5075487;27;45358;-80
2022/05/05 02:39:27;;;;;;;;;8.00;8.00;;;;;31.01;23.61;101585.97;5075559;28;45423;-80
2022/05/05 02:41:53;;;;;;;;;10.67;10.00;;;;;31.25;23.88;101612.09;5074639;28;47287;-80
2022/05/05 02:44:18;;;;;;;;;9.00;9.00;;;;;31.20;23.70;101596.88;5074394;28;45492;-80
2022/05/05 02:46:43;;;;;;;;;8.00;7.00;;;;;31.18;23.79;101587.81;5074395;28;45629;-78
2022/05/05 02:49:10;;;;;;;;;9.00;8.00;;;;;31.00;24.01;101554.97;5075333;27;46120;-80
2022/05/05 02:51:35;;;;;;;;;8.33;8.33;;;;;31.34;23.64;101609.81;5075855;27;45480;-80
2022/05/05 02:56:44;;;;;;;;;11.00;10.00;;;;;31.27;24.43;101612.00;5075874;28;45481;-80
2022/05/05 02:59:09;;;;;;;;;10.33;9.00;;;;;31.11;23.68;101579.94;5074126;28;47240;-80
2022/05/05 03:01:35;;;;;;;;;10.33;9.33;;;;;31.40;24.24;101606.72;5075430;27;45544;-80
2022/05/05 03:04:00;;;;;;;;;10.00;9.00;;;;;30.80;23.39;101534.09;5075489;27;45527;-80
2022/05/05 03:06:26;;;;;;;;;11.33;10.00;;;;;31.25;23.79;101614.84;5075427;27;45607;-80
2022/05/05 03:08:52;;;;;;;;;11.00;9.00;;;;;30.93;24.04;101569.97;5074041;28;48370;-80
2022/05/05 03:11:17;;;;;;;;;13.33;12.67;;;;;31.20;24.36;101605.97;5075284;28;45523;-79
2022/05/05 03:13:42;;;;;;;;;9.67;7.00;;;;;31.27;24.12;101610.13;5075460;27;45648;-79
2022/05/05 03:16:08;;;;;;;;;11.67;10.00;;;;;31.38;24.26;101606.81;5075363;27;45552;-79
2022/05/05 03:18:33;;;;;;;;;12.67;11.33;;;;;31.21;24.17;101572.09;5073566;28;47058;-83
2022/05/05 03:20:59;;;;;;;;;12.67;11.00;;;;;31.12;24.13;101567.13;5075627;27;45449;-85
2022/05/05 03:23:24;;;;;;;;;10.33;9.00;;;;;31.29;23.62;101601.81;5075409;27;45496;-80
2022/05/05 03:25:49;;;;;;;;;10.00;10.00;;;;;31.01;23.60;101559.47;5075480;28;45520;-81
2022/05/05 03:28:15;;;;;;;;;10.67;10.67;;;;;31.05;23.59;101576.66;5075054;27;45538;-81
2022/05/05 03:30:40;;;;;;;;;11.67;10.33;;;;;31.28;23.54;101609.19;5073858;28;45411;-81
2022/05/05 03:33:07;;;;;;;;;12.33;12.33;;;;;30.85;23.97;101542.09;5073772;28;45441;-81
2022/05/05 03:35:32;;;;;;;;;11.67;11.33;;;;;31.00;23.75;101562.28;5077785;27;45531;-81
2022/05/05 03:37:57;;;;;;;;;12.00;11.67;;;;;31.00;23.46;101570.50;5078677;27;46353;-81
2022/05/05 03:40:23;;;;;;;;;13.00;12.33;;;;;31.08;24.03;101603.88;5077396;28;45443;-81
2022/05/05 03:42:48;;;;;;;;;11.33;11.33;;;;;31.05;24.43;101609.53;5077808;28;45450;-81
2022/05/05 03:45:13;;;;;;;;;11.67;11.67;;;;;30.87;23.80;101589.44;5078686;27;45473;-81
2022/05/05 03:47:39;;;;;;;;;12.00;11.00;;;;;30.72;23.88;101586.56;5076753;28;46443;-81
2022/05/05 03:50:04;;;;;;;;;13.00;11.00;;;;;30.56;24.92;101604.75;5078624;27;46364;-81
2022/05/05 03:52:30;;;;;;;;;14.33;14.00;;;;;30.49;24.91;101584.13;5078227;27;45389;-81
2022/05/05 03:54:55;;;;;;;;;11.00;10.00;;;;;30.44;24.83;101585.25;5078560;27;45461;-81
2022/05/05 03:57:20;;;;;;;;;12.33;10.67;;;;;30.49;24.73;101606.03;5078382;27;46280;-80
2022/05/05 03:59:46;;;;;;;;;10.67;10.67;;;;;30.46;24.71;101590.66;5077161;28;45433;-81
2022/05/05 04:02:11;;;;;;;;;17.00;12.00;;;;;30.38;24.45;101560.91;5078060;27;45548;-80
2022/05/05 04:04:36;;;;;;;;;15.33;12.33;;;;;30.76;24.52;101632.00;5078362;28;45414;-84
2022/05/05 04:07:02;;;;;;;;;12.67;12.00;;;;;30.76;24.75;101621.06;5078442;27;46093;-84
2022/05/05 04:09:27;;;;;;;;;14.33;13.00;;;;;30.65;24.66;101617.09;5078349;27;45481;-84
2022/05/05 04:11:53;;;;;;;;;11.33;11.00;;;;;30.51;24.61;101606.88;5078257;27;45386;-83
2022/05/05 04:14:18;;;;;;;;;19.00;14.33;;;;;30.43;24.82;101596.28;5075526;28;45343;-80
2022/05/05 04:16:43;;;;;;;;;14.00;14.00;;;;;30.41;24.22;101574.44;5077802;28;48030;-81
2022/05/05 04:19:09;;;;;;;;;18.67;15.00;;;;;30.79;24.84;101614.53;5074382;28;47298;-82
2022/05/05 04:21:37;;;;;;;;;17.33;16.33;;;;;30.87;24.47;101623.22;5063247;27;45317;-82
2022/05/05 04:24:03;;;;;;;;;13.33;13.33;;;;;30.84;24.25;101600.59;5090528;27;45624;-81
2022/05/05 04:26:29;;;;;;;;;19.00;14.00;;;;;30.78;24.38;101569.78;5057254;28;45621;-81
2022/05/05 04:28:58;;;;;;;;;14.33;13.33;;;;;31.00;24.50;101634.44;5063425;28;45513;-83
2022/05/05 04:31:27;;;;;;;;;13.67;13.33;;;;;30.86;24.10;101632.41;5076672;28;45350;-84
2022/05/05 04:33:53;;;;;;;;;16.00;14.00;;;;;30.88;24.37;101618.63;5074357;28;45564;-83
2022/05/05 04:36:18;;;;;;;;;14.33;13.00;;;;;30.61;24.51;101588.97;5077443;27;46200;-84
2022/05/05 04:38:44;;;;;;;;;15.00;13.67;;;;;30.68;24.68;101604.13;5077805;27;45500;-84
2022/05/05 04:41:09;;;;;;;;;14.00;14.00;;;;;31.02;24.26;101640.72;5070860;28;45513;-84
2022/05/05 04:43:35;;;;;;;;;11.00;10.33;;;;;31.08;24.38;101623.97;5055598;28;45411;-83
2022/05/05 04:46:02;;;;;;;;;16.00;14.33;;;;;30.86;24.22;101618.72;5062785;28;46051;-83
2022/05/05 04:48:28;;;;;;;;;18.00;13.67;;;;;30.98;24.79;101638.22;5078055;28;45251;-82
2022/05/05 04:50:53;;;;;;;;;15.67;15.00;;;;;30.98;24.27;101610.81;5078207;27;45267;-83
2022/05/05 04:53:19;;;;;;;;;15.00;14.33;;;;;31.02;24.65;101632.50;5078100;27;45475;-83
2022/05/05 04:55:44;;;;;;;;;16.67;16.67;;;;;30.85;24.66;101641.59;5077423;27;45278;-82
2022/05/05 04:58:09;;;;;;;;;17.33;15.33;;;;;30.61;25.05;101649.25;5076848;28;46124;-81
2022/05/05 05:00:36;;;;;;;;;19.67;18.67;;;;;30.18;25.42;101624.88;5077293;27;45660;-80
2022/05/05 05:03:01;;;;;;;;;23.00;20.67;;;;;30.22;25.33;101653.84;5074181;27;45524;-80
2022/05/05 05:05:27;;;;;;;;;20.00;16.33;;;;;30.25;24.97;101642.78;5076904;28;45501;-80
2022/05/05 05:07:52;;;;;;;;;19.00;18.00;;;;;30.47;25.15;101654.53;5065545;27;45750;-80
2022/05/05 05:10:17;;;;;;;;;23.00;21.33;;;;;30.42;25.49;101647.41;5073559;28;45572;-80
2022/05/05 05:12:43;;;;;;;;;23.00;21.67;;;;;30.65;24.70;101659.06;5074797;28;45492;-80
2022/05/05 05:15:09;;;;;;;;;24.67;19.67;;;;;30.37;25.30;101660.44;5073216;28;46502;-80
2022/05/05 05:17:37;;;;;;;;;19.00;16.67;;;;;30.44;25.36;101661.94;5067637;28;45505;-80
2022/05/05 05:20:03;;;;;;;;;22.67;20.67;;;;;30.36;25.33;101649.56;5077235;27;45408;-82
2022/05/05 05:22:29;;;;;;;;;24.67;21.67;;;;;30.28;25.41;101650.84;5059521;28;45523;-83
2022/05/05 05:24:54;;;;;;;;;26.33;22.00;;;;;30.35;25.41;101665.13;5055911;28;45326;-83
2022/05/05 05:27:19;;;;;;;;;21.67;19.00;;;;;30.19;25.23;101648.53;5058054;28;45395;-76
2022/05/05 05:29:45;;;;;;;;;23.00;20.00;;;;;30.40;25.59;101668.50;5058432;28;45370;-82
2022/05/05 05:32:10;;;;;;;;;30.00;24.67;;;;;30.47;25.20;101670.97;5068395;27;45319;-78
2022/05/05 05:34:36;;;;;;;;;20.33;18.00;;;;;30.40;25.18;101679.44;5063374;28;46475;-78
2022/05/05 05:37:03;;;;;;;;;23.67;18.00;;;;;30.33;25.53;101667.03;5073847;27;45446;-81
2022/05/05 05:39:31;;;;;;;;;23.67;23.33;;;;;30.34;25.72;101666.06;5075572;27;45436;-79
2022/05/05 05:41:57;;;;;;;;;23.00;21.67;;;;;30.39;25.32;101665.81;5074836;28;45589;-82
2022/05/05 05:44:22;;;;;;;;;19.67;18.00;;;;;30.65;25.31;101666.38;5065963;27;46117;-85
2022/05/05 05:46:48;;;;;;;;;26.00;21.00;;;;;30.81;25.10;101658.28;5070991;27;45446;-84
2022/05/05 05:49:13;;;;;;;;;21.33;20.00;;;;;31.02;24.94;101686.44;5072661;27;45231;-79
2022/05/05 05:51:39;;;;;;;;;24.00;21.33;;;;;30.99;24.72;101678.34;5063318;28;45372;-80
2022/05/05 05:54:05;;;;;;;;;26.00;24.00;;;;;31.16;25.18;101691.19;5059368;28;45518;-76
2022/05/05 05:56:31;;;;;;;;;19.00;19.00;;;;;31.15;24.30;101670.22;5074414;27;45431;-76
2022/05/05 05:58:56;;;;;;;;;28.00;24.67;;;;;31.05;24.61;101681.66;5072185;28;45360;-80
2022/05/05 06:03:53;;;;;;;;;23.67;22.00;;;;;30.85;24.77;101684.56;5075536;27;45547;-79
2022/05/05 06:04:09;;;;;;;;;24.67;22.00;;;;;30.84;25.17;101693.72;5055772;28;47748;-79
2022/05/05 06:06:38;;;;;;;;;24.00;22.00;;;;;30.76;24.89;101691.41;5054696;28;45447;-80
2022/05/05 06:09:04;;;;;;;;;25.67;21.67;;;;;30.45;25.56;101635.47;5056219;28;45501;-79
2022/05/05 06:11:29;;;;;;;;;23.67;22.67;;;;;31.12;25.42;101688.63;5054270;28;45500;-79
2022/05/05 06:13:55;;;;;;;;;23.00;21.00;;;;;31.09;25.05;101658.63;5055699;28;45263;-80
2022/05/05 06:16:20;;;;;;;;;25.00;22.00;;;;;31.26;24.37;101667.78;5073061;28;45858;-79
2022/05/05 06:18:46;;;;;;;;;24.00;20.33;;;;;31.34;24.59;101687.47;5070493;27;45593;-79
2022/05/05 06:21:11;;;;;;;;;26.67;25.33;;;;;31.41;24.79;101682.53;5055955;28;45516;-79
2022/05/05 06:23:37;;;;;;;;;26.00;24.33;;;;;31.13;24.75;101684.91;5054286;28;47984;-79
2022/05/05 06:26:05;;;;;;;;;26.67;22.67;;;;;31.10;25.04;101690.53;5055364;28;45507;-79
2022/05/05 06:28:32;;;;;;;;;22.00;20.00;;;;;31.03;25.08;101705.53;5056023;28;45401;-80
2022/05/05 06:30:58;;;;;;;;;29.33;25.67;;;;;30.95;25.21;101685.84;5051774;27;45552;-78
2022/05/05 06:33:23;;;;;;;;;24.00;23.00;;;;;31.01;25.15;101696.50;5060117;27;45518;-79
2022/05/05 06:35:49;;;;;;;;;22.00;21.67;;;;;31.24;25.27;101703.53;5060787;28;45430;-79
2022/05/05 06:38:14;;;;;;;;;30.67;25.33;;;;;31.17;24.83;101693.84;5062006;28;45816;-79
2022/05/05 06:40:42;;;;;;;;;23.00;19.33;;;;;31.22;24.93;101697.22;5063951;27;45528;-78
2022/05/05 06:43:07;;;;;;;;;27.67;24.00;;;;;31.43;25.22;101714.38;5058023;27;45485;-80
2022/05/05 06:45:32;;;;;;;;;25.33;23.33;;;;;31.35;24.69;101704.78;5057769;28;45439;-80
2022/05/05 06:47:58;;;;;;;;;24.00;19.33;;;;;31.26;24.85;101695.22;5070882;27;45320;-80
2022/05/05 06:50:25;;;;;;;;;26.67;25.67;;;;;31.51;24.95;101722.19;5065453;28;45403;-80
2022/05/05 06:52:50;;;;;;;;;23.33;23.33;;;;;31.51;24.48;101700.25;5062397;28;46637;-80
2022/05/05 06:55:16;;;;;;;;;24.33;23.00;;;;;31.48;24.90;101701.31;5062265;28;45400;-79
2022/05/05 06:57:43;;;;;;;;;24.33;23.00;;;;;31.77;24.35;101723.56;5063670;27;45461;-79
2022/05/05 07:00:09;;;;;;;;;25.67;23.00;;;;;31.70;24.33;101704.75;5059392;28;45618;-79
2022/05/05 07:02:34;;;;;;;;;25.00;22.67;;;;;31.81;24.38;101705.97;5062521;27;45379;-79
2022/05/05 07:07:44;;;;;;;;;24.33;22.67;;;;;31.73;24.68;101708.25;5058368;28;45481;-79
2022/05/05 07:12:53;;;;;;;;;26.00;24.00;;;;;31.51;24.36;101726.81;5060900;28;45461;-79
2022/05/05 07:15:18;;;;;;;;;26.00;23.33;;;;;31.51;24.49;101732.28;5071445;28;45428;-79
2022/05/05 07:17:43;;;;;;;;;25.33;22.00;;;;;31.51;24.89;101726.81;5063597;27;45369;-79
2022/05/05 07:20:09;;;;;;;;;28.33;25.00;;;;;31.51;25.17;101740.53;5059997;28;45329;-79
2022/05/05 07:22:35;;;;;;;;;26.67;23.00;;;;;31.62;24.74;101740.84;5063508;27;45335;-79
2022/05/05 07:25:03;;;;;;;;;23.67;20.33;;;;;31.53;25.01;101730.34;5060103;27;45394;-79
2022/05/05 07:27:29;;;;;;;;;25.33;24.33;;;;;31.59;25.03;101735.50;5064420;28;45520;-80
2022/05/05 07:29:54;;;;;;;;;21.33;20.00;;;;;31.76;24.36;101762.94;5058137;28;45671;-80
2022/05/05 07:32:19;;;;;;;;;24.00;24.00;;;;;31.92;24.56;101759.34;5060549;28;46419;-80
2022/05/05 07:34:45;;;;;;;;;23.67;23.67;;;;;31.90;24.83;101748.47;5067749;27;45444;-79
2022/05/05 07:37:10;;;;;;;;;28.00;25.00;;;;;31.81;24.52;101736.13;5061680;28;45648;-79
2022/05/05 07:39:36;;;;;;;;;25.67;24.67;;;;;31.86;24.51;101754.22;5069033;28;45628;-79
2022/05/05 07:42:01;;;;;;;;;28.00;25.67;;;;;31.58;24.52;101756.59;5066278;28;45515;-79
2022/05/05 07:44:26;;;;;;;;;28.67;26.67;;;;;31.66;24.99;101756.19;5054391;28;45473;-79
2022/05/05 07:46:52;;;;;;;;;25.67;24.00;;;;;31.85;24.70;101756.03;5066314;28;45391;-79
2022/05/05 07:49:17;;;;;;;;;29.67;24.67;;;;;31.79;24.52;101759.16;5060530;28;45510;-79
2022/05/05 07:51:43;;;;;;;;;30.00;25.00;;;;;31.87;24.34;101767.84;5056282;28;46121;-77
2022/05/05 07:56:52;;;;;;;;;33.67;28.00;;;;;31.91;24.18;101761.22;5056930;28;45373;-77
2022/05/05 07:59:19;;;;;;;;;29.00;25.33;;;;;32.05;24.36;101767.78;5065669;27;45380;-77
2022/05/05 08:01:44;;;;;;;;;30.33;28.67;;;;;32.06;24.29;101764.06;5060795;28;45413;-77
2022/05/05 08:04:09;;;;;;;;;22.67;19.33;;;;;32.17;24.33;101774.47;5059502;28;45296;-77
2022/05/05 08:06:35;;;;;;;;;25.67;25.67;;;;;32.03;24.60;101767.00;5068813;27;45382;-76
2022/05/05 08:09:00;;;;;;;;;29.00;25.33;;;;;31.98;24.56;101761.75;5065283;27;45390;-77
2022/05/05 08:11:27;;;;;;;;;30.00;26.00;;;;;31.97;24.38;101769.09;5067599;28;46188;-76
2022/05/05 08:13:54;;;;;;;;;29.67;27.67;;;;;31.96;24.26;101758.22;5059044;28;45472;-77
2022/05/05 08:16:19;;;;;;;;;28.67;25.00;;;;;32.21;24.15;101765.09;5061889;27;45409;-76
2022/05/05 08:18:45;;;;;;;;;20.33;18.33;;;;;32.51;24.05;101787.19;5070979;28;45409;-78
2022/05/05 08:21:10;;;;;;;;;27.33;24.00;;;;;32.60;23.77;101775.66;5063734;27;45472;-77
2022/05/05 08:23:36;;;;;;;;;25.33;24.00;;;;;32.71;23.62;101775.06;5062581;28;45524;-77
2022/05/05 08:28:46;;;;;;;;;24.67;20.00;;;;;32.56;23.57;101779.56;5057882;28;45441;-77
2022/05/05 08:31:12;;;;;;;;;23.33;22.33;;;;;32.47;23.33;101785.56;5067793;27;46056;-77
2022/05/05 08:33:38;;;;;;;;;25.33;25.00;;;;;32.39;24.19;101790.63;5063173;27;45565;-76
2022/05/05 08:36:05;;;;;;;;;24.67;22.67;;;;;32.41;23.95;101795.06;5065690;28;45422;-76
2022/05/05 08:38:31;;;;;;;;;23.00;21.67;;;;;32.39;23.39;101793.38;5065497;28;45551;-76
2022/05/05 08:40:57;;;;;;;;;18.00;17.00;;;;;32.14;23.38;101779.16;5068045;28;45540;-77
2022/05/05 08:43:22;;;;;;;;;22.00;22.00;;;;;32.34;23.75;101793.63;5063878;28;45410;-75
2022/05/05 08:45:49;;;;;;;;;21.00;19.67;;;;;32.21;23.35;101774.22;5070148;28;45533;-76
2022/05/05 08:48:16;;;;;;;;;16.67;16.67;;;;;32.32;23.59;101801.06;5061189;27;45359;-76
2022/05/05 08:50:44;;;;;;;;;20.67;19.67;;;;;32.38;23.22;101795.25;5069946;27;46359;-76
2022/05/05 08:53:14;;;;;;;;;22.00;20.00;;;;;32.51;23.44;101789.06;5071664;27;45325;-76
2022/05/05 08:55:40;;;;;;;;;24.00;21.00;;;;;32.43;23.24;101790.38;5065897;27;45489;-76
2022/05/05 08:58:05;;;;;;;;;25.00;22.00;;;;;32.52;23.25;101797.19;5065252;28;45596;-76
2022/05/05 09:00:30;;;;;;;;;21.00;21.00;;;;;32.64;23.28;101784.59;5059137;28;46378;-77
2022/05/05 09:03:00;;;;;;;;;23.67;20.67;;;;;32.74;23.23;101798.72;5072595;28;45546;-76
2022/05/05 09:05:44;;;;;;;;;20.00;20.00;;;;;32.95;23.34;101805.72;5062594;27;45327;-75
2022/05/05 09:08:13;;;;;;;;;20.67;20.67;;;;;32.99;23.00;101811.91;5060293;28;45519;-76
2022/05/05 09:10:45;;;;;;;;;21.00;19.00;;;;;33.04;23.15;101798.78;5068894;27;45514;-75
2022/05/05 09:13:11;;;;;;;;;19.67;19.33;;;;;33.16;22.89;101813.66;5069629;27;45446;-75
2022/05/05 09:15:40;;;;;;;;;17.67;16.67;;;;;33.06;22.98;101799.56;5059381;28;45379;-75
2022/05/05 09:18:21;;;;;;;;;22.33;18.67;;;;;32.95;23.25;101800.22;5076365;27;45519;-75
2022/05/05 09:20:48;;;;;;;;;23.33;23.33;;;;;32.86;22.66;101805.38;5064636;28;46259;-77
2022/05/05 09:23:34;;;;;;;;;25.33;20.33;;;;;33.18;22.74;101818.09;5064800;27;45449;-76
2022/05/05 09:26:01;;;;;;;;;26.67;20.67;;;;;33.35;22.62;101810.72;5063212;28;45423;-76
2022/05/05 09:28:31;;;;;;;;;20.33;19.00;;;;;33.49;22.99;101793.38;5068968;28;45405;-76
2022/05/05 09:31:04;;;;;;;;;23.33;21.67;;;;;33.53;22.60;101799.56;5069472;28;45401;-76
2022/05/05 09:33:43;;;;;;;;;26.00;22.67;;;;;33.65;22.57;101809.81;5067989;27;45449;-76
2022/05/05 09:36:24;;;;;;;;;23.67;21.00;;;;;33.36;22.17;101814.34;5063350;28;45505;-76
2022/05/05 09:39:19;;;;;;;;;27.67;23.33;;;;;33.39;22.52;101817.81;5055889;28;45404;-76
2022/05/05 09:41:46;;;;;;;;;21.33;19.67;;;;;33.42;21.95;101765.34;5064033;28;47034;-76
2022/05/05 09:44:20;;;;;;;;;23.00;21.33;;;;;33.74;21.84;101784.47;5061217;28;45387;-75
2022/05/05 09:46:46;;;;;;;;;21.00;17.33;;;;;33.79;22.16;101790.59;5063143;28;45470;-75
2022/05/05 09:49:31;;;;;;;;;20.00;18.00;;;;;33.89;22.21;101806.53;5066972;28;45484;-76
2022/05/05 09:57:40;;;;;;;;;19.00;19.00;;;;;33.98;21.81;101812.34;5031482;28;45615;-76
2022/05/05 10:05:45;;;;;;;;;19.00;18.00;;;;;34.24;21.59;101773.09;5016543;28;45910;-75
2022/05/05 10:08:20;;;;;;;;;18.67;16.00;;;;;34.40;21.09;101792.28;5024144;28;45503;-72
2022/05/05 10:10:46;;;;;;;;;15.67;15.00;;;;;34.31;21.10;101777.25;5019341;28;45888;-75
2022/05/05 10:13:13;;;;;;;;;18.33;17.67;;;;;34.57;20.95;101796.69;5015333;28;46395;-75
2022/05/05 10:15:39;;;;;;;;;18.33;16.67;;;;;34.54;21.01;101775.72;5026126;28;45640;-81
2022/05/05 10:18:05;;;;;;;;;15.67;14.33;;;;;34.74;20.89;101801.97;5022502;28;45441;-77
2022/05/05 10:20:34;;;;;;;;;15.00;15.00;;;;;34.73;21.23;101775.38;5031996;28;45410;-78
2022/05/05 10:23:09;;;;;;;;;13.67;13.67;;;;;34.77;21.14;101787.06;5028411;28;46247;-76
2022/05/05 10:25:39;;;;;;;;;15.00;14.00;;;;;34.24;21.12;101751.06;5019567;28;45433;-82
2022/05/05 10:28:44;;;;;;;;;15.67;14.00;;;;;34.39;21.16;101783.16;5031542;28;45508;-83
2022/05/05 10:31:37;;;;;;;;;12.00;11.00;;;;;34.39;20.68;101794.16;5019607;28;45547;-83
2022/05/05 10:34:04;;;;;;;;;14.33;14.33;;;;;34.17;20.90;101801.03;5035720;28;47010;-82
2022/05/05 10:36:30;;;;;;;;;10.00;10.00;;;;;34.21;19.93;101790.72;5067065;28;45786;-82
2022/05/05 10:38:57;;;;;;;;;9.67;9.00;;;;;34.27;20.47;101775.66;5073334;28;45436;-82
2022/05/05 10:41:39;;;;;;;;;10.33;8.00;;;;;34.43;20.01;101800.34;5065425;27;45438;-82
2022/05/05 10:44:20;;;;;;;;;8.00;8.00;;;;;34.39;19.72;101794.16;5057309;28;47387;-80
2022/05/05 10:47:02;;;;;;;;;7.00;7.00;;;;;34.23;19.81;101758.41;5057373;28;45548;-82
2022/05/05 10:49:32;;;;;;;;;17.00;17.00;;;;;34.44;19.40;101796.59;5064953;27;45505;-80
2022/05/05 10:52:21;;;;;;;;;9.67;9.00;;;;;34.32;19.59;101801.06;5070077;28;45696;-81
2022/05/05 10:54:48;;;;;;;;;6.67;6.67;;;;;34.31;19.67;101793.78;5046724;28;45587;-77
2022/05/05 10:57:25;;;;;;;;;6.00;6.00;;;;;34.24;20.19;101789.63;5065021;27;45427;-77
2022/05/05 11:00:18;;;;;;;;;7.00;7.00;;;;;34.27;20.15;101789.41;5063419;28;45573;-77
2022/05/05 11:02:56;;;;;;;;;13.67;13.67;;;;;34.24;19.69;101790.50;5061850;28;45540;-77
2022/05/05 11:05:30;;;;;;;;;16.67;14.67;;;;;34.10;19.36;101783.13;5057059;28;45559;-77
2022/05/05 11:08:08;;;;;;;;;8.00;8.00;;;;;34.25;19.96;101789.53;5071739;28;45467;-77
2022/05/05 11:13:46;;;;;;;;;9.33;7.33;;;;;33.82;20.48;101797.78;5071857;28;45541;-76
2022/05/05 11:22:07;;;;;;;;;7.00;6.00;;;;;33.42;20.15;101770.84;5059389;28;45556;-76
2022/05/05 11:24:33;;;;;;;;;8.00;7.00;;;;;33.35;20.02;101744.72;5071616;28;45476;-76
2022/05/05 11:26:59;;;;;;;;;8.00;8.00;;;;;33.72;20.15;101782.81;5055557;28;46106;-76
2022/05/05 11:29:31;;;;;;;;;5.00;5.00;;;;;33.90;19.97;101789.06;5065918;28;45482;-77
2022/05/05 11:31:58;;;;;;;;;6.67;5.67;;;;;33.72;20.03;101769.03;5064246;27;45280;-79
2022/05/05 11:34:31;;;;;;;;;6.67;5.33;;;;;33.98;19.64;101794.91;5082694;27;45564;-78
2022/05/05 11:36:58;;;;;;;;;6.00;6.00;;;;;34.05;19.33;101792.66;5070620;27;45445;-80
2022/05/05 11:39:23;;;;;;;;;6.33;5.00;;;;;33.75;19.43;101761.47;5059304;27;45782;-80
2022/05/05 11:42:15;;;;;;;;;5.00;5.00;;;;;34.06;19.42;101792.56;5060488;28;45450;-80
2022/05/05 11:44:43;;;;;;;;;6.00;6.00;;;;;34.13;19.44;101773.78;5052939;28;45464;-77
2022/05/05 11:47:17;;;;;;;;;7.00;6.00;;;;;33.92;19.66;101729.25;5058754;28;45655;-80
2022/05/05 11:49:46;;;;;;;;;8.00;6.00;;;;;34.01;19.82;101751.56;5060131;28;45400;-79
2022/05/05 11:52:19;;;;;;;;;7.33;6.00;;;;;34.18;19.45;101778.00;5060971;27;45330;-79
2022/05/05 11:54:55;;;;;;;;;7.67;6.00;;;;;34.27;19.77;101775.66;5072617;28;45476;-80
2022/05/05 11:57:39;;;;;;;;;6.33;6.33;;;;;34.50;19.57;101772.28;5070628;28;48245;-79